• Join FlightAware (Why Join?)
  • Login
  • US Flag 
01:22PM EDT


 

Airport Tracker/Info


-or-


 

Live Flight TrackerFlight Track Log ✈ EGF2964 ✈ 05-May-2012 ✈ KCAE - KDFW

Flight Track Log - Related Links

Times and Time Zones

All times are in EDT time to prevent confusion due to time zone crossing. See the EGF2964 flight status page for this flight to view local times or setup timezone preferences in your user account.

Time Position Orientation Groundspeed Altitude Reporting Facility
EDT Latitude Longitude Course Direction KTS MPH feet Rate Location/Type
11:59AM 33.9300 -81.1822 283° West  Level FlightAware Approximate
12:00PM 33.8865 -81.2840 28° Northeast  Level FlightAware Approximate
12:01PM 33.8667 -81.4003 59° Northeast  Level FlightAware Approximate
12:01PM 33.9425 -81.2478 252° West 205 236 4,000  Level Jacksonville Center
12:05PM 33.8725 -81.5094 254° West 260 299 10,300 1,800 Climbing Atlanta Center
12:06PM 33.8494 -81.6050 252° West 280 322 11,900 1,560 Climbing Atlanta Center
12:07PM 33.8222 -81.7058 253° West 306 352 13,500 1,680 Climbing Atlanta Center
12:08PM 33.7950 -81.8117 254° West 323 372 15,300 1,740 Climbing Atlanta Center
12:09PM 33.7697 -81.9147 252° West 323 372 17,000 1,680 Climbing Atlanta Center
12:10PM 33.7419 -82.0153 254° West 323 372 18,700 1,560 Climbing Atlanta Center
12:11PM 33.7167 -82.1233 261° West 328 377 20,200 1,920 Climbing Atlanta Center
12:13PM 33.6867 -82.3486 263° West 323 372 24,500 1,800 Climbing Atlanta Center
12:14PM 33.6756 -82.4511 259° West 323 372 25,700 1,140 Climbing Atlanta Center
12:15PM 33.6561 -82.5664 265° West 331 381 26,800 1,020 Climbing Atlanta Center
12:16PM 33.6469 -82.6814 260° West 352 405 27,800 960 Climbing Atlanta Center
12:17PM 33.6294 -82.8014 262° West 364 419 28,800 960 Climbing Atlanta Center
12:18PM 33.6158 -82.9236 262° West 376 433 29,800 960 Climbing Atlanta Center
12:19PM 33.6003 -83.0511 262° West 376 433 30,800 900 Climbing Atlanta Center
12:20PM 33.5867 -83.1636 262° West 386 444 31,700 900 Climbing Atlanta Center
12:21PM 33.5708 -83.2958 261° West 397 457 32,700 960 Climbing Atlanta Center
12:22PM 33.5528 -83.4281 261° West 402 463 33,700 960 Climbing Atlanta Center
12:23PM 33.5344 -83.5603 261° West 409 471 34,700 960 Climbing Atlanta Center
12:24PM 33.5161 -83.6975 262° West 409 471 35,700 600 Climbing Atlanta Center
12:25PM 33.4997 -83.8319 261° West 414 476 36,000 120 Climbing Atlanta Center
12:26PM 33.4792 -83.9864 262° West 420 483 36,000  Level Atlanta Center
12:27PM 33.4622 -84.1258 260° West 430 495 36,000  Level Atlanta Center
12:28PM 33.4433 -84.2603 261° West 418 481 36,000  Level Atlanta Center
12:29PM 33.4264 -84.3947 260° West 418 481 36,000  Level Atlanta Center
12:30PM 33.4072 -84.5292 260° West 418 481 36,000  Level Atlanta Center
12:31PM 33.3878 -84.6658 263° West 418 481 36,000  Level Atlanta Center
12:32PM 33.3744 -84.7900 259° West 418 481 36,000  Level Atlanta Center
12:33PM 33.3528 -84.9267 261° West 418 481 36,000  Level Atlanta Center
12:34PM 33.3350 -85.0633 261° West 418 481 36,000  Level Atlanta Center
12:35PM 33.3172 -85.1972 260° West 413 475 36,000  Level Atlanta Center
12:36PM 33.2969 -85.3386 261° West 426 490 36,000  Level Atlanta Center
12:37PM 33.2764 -85.4875 261° West 426 490 36,000  Level Atlanta Center
12:38PM 33.2581 -85.6236 260° West 420 483 36,000  Level Atlanta Center
12:39PM 33.2375 -85.7625 259° West 420 483 36,000  Level Atlanta Center
12:40PM 33.2144 -85.9011 260° West 428 493 36,000  Level Atlanta Center
12:41PM 33.1958 -86.0322 260° West 428 493 36,000  Level Atlanta Center
12:42PM 33.1747 -86.1681 262° West 421 484 36,000  Level Atlanta Center
12:43PM 33.1575 -86.3092 264° West 421 484 36,000  Level Atlanta Center
12:44PM 33.1444 -86.4453 264° West 421 484 36,000  Level Atlanta Center
12:45PM 33.1336 -86.5767 263° West 414 476 36,000  Level Atlanta Center
12:46PM 33.1203 -86.7125 265° West 409 471 36,000  Level Atlanta Center
12:47PM 33.1114 -86.8314 262° West 409 471 36,000  Level Atlanta Center
12:48PM 33.0958 -86.9647 262° West 409 471 36,000  Level Atlanta Center
12:49PM 33.0797 -87.1081 264° West 409 471 36,000  Level Atlanta Center
12:50PM 33.0681 -87.2364 264° West 404 465 36,000  Level Atlanta Center
12:51PM 33.0564 -87.3697 263° West 404 465 36,000  Level Atlanta Center
12:52PM 33.0422 -87.5031 264° West 404 465 36,000  Level Atlanta Center
12:53PM 33.0325 -87.6217 263° West 409 471 36,000  Level Atlanta Center
12:54PM 33.0131 -87.7981 263° West 409 471 36,000  Level Memphis Center
12:55PM 33.0006 -87.9150 265° West 409 471 36,000  Level Memphis Center
12:56PM 32.9889 -88.0589 263° West 409 471 36,000  Level Memphis Center
12:57PM 32.9744 -88.1906 264° West 409 471 36,000  Level Memphis Center
12:58PM 32.9642 -88.3169 262° West 409 471 36,000  Level Memphis Center
12:59PM 32.9475 -88.4536 263° West 409 471 36,000  Level Memphis Center
01:00PM 32.9347 -88.5800 263° West 404 465 36,000  Level Memphis Center
01:01PM 32.9219 -88.7089 262° West 404 465 36,000  Level Memphis Center
01:02PM 32.9069 -88.8381 263° West 404 465 36,000  Level Memphis Center
01:03PM 32.8936 -88.9644 263° West 404 465 36,000  Level Memphis Center
01:04PM 32.8806 -89.0908 262° West 398 458 36,000  Level Memphis Center
01:05PM 32.8650 -89.2194 263° West 393 452 36,000  Level Memphis Center
01:06PM 32.8514 -89.3458 262° West 393 452 36,000  Level Memphis Center
01:07PM 32.8358 -89.4722 261° West 393 452 36,000  Level Memphis Center
01:08PM 32.8200 -89.5958 261° West 393 452 36,000  Level Memphis Center
01:09PM 32.8039 -89.7197 262° West 387 445 36,000  Level Memphis Center
01:10PM 32.7878 -89.8508 263° West 392 451 36,000  Level Memphis Center
01:11PM 32.7736 -89.9792 263° West 392 451 36,000  Level Memphis Center
01:12PM 32.7614 -90.1053 261° West 392 451 36,000  Level Memphis Center
01:13PM 32.7450 -90.2314 263° West 392 451 36,000  Level Memphis Center
01:14PM 32.7325 -90.3547 262° West 392 451 36,000  Level Memphis Center
01:15PM 32.7178 -90.4808 261° West 392 451 36,000  Level Memphis Center
01:16PM 32.7008 -90.6042 262° West 392 451 36,000  Level Memphis Center
01:17PM 32.6861 -90.7325 261° West 392 451 36,000  Level Memphis Center
01:18PM 32.6689 -90.8558 263° West 392 451 36,000  Level Memphis Center
01:19PM 32.6558 -90.9817 260° West 392 451 36,000 -60 Level Memphis Center
01:20PM 32.6383 -91.1047 262° West 392 451 35,900 -540 Descending Memphis Center
01:22PM 32.6006 -91.4119 261° West 408 470 34,200 -600 Descending Fort Worth Center
01:23PM 32.5836 -91.5436 262° West 408 470 34,000 -120 Descending Fort Worth Center
01:24PM 32.5689 -91.6728 259° West 408 470 34,000  Level Fort Worth Center
01:25PM 32.5492 -91.7947 262° West 408 470 34,000  Level Fort Worth Center
01:26PM 32.5325 -91.9336 261° West 390 449 34,000  Level Fort Worth Center
01:27PM 32.5167 -92.0528 266° West 390 449 34,000  Level Fort Worth Center
01:28PM 32.5092 -92.1714 266° West 379 436 34,000  Level Fort Worth Center
01:29PM 32.5014 -92.2878 264° West 373 429 34,000  Level Fort Worth Center
01:30PM 32.4917 -92.4064 268° West 373 429 34,000  Level Fort Worth Center
01:31PM 32.4878 -92.5200 263° West 363 418 34,000  Level Fort Worth Center
01:32PM 32.4756 -92.6389 265° West 363 418 34,000  Level Fort Worth Center
01:33PM 32.4675 -92.7572 264° West 363 418 34,000  Level Fort Worth Center
01:34PM 32.4575 -92.8786 264° West 369 425 34,000  Level Fort Worth Center
01:35PM 32.4469 -92.9947 265° West 369 425 34,000  Level Fort Worth Center
01:36PM 32.4386 -93.1181 264° West 369 425 34,000  Level Fort Worth Center
01:37PM 32.4297 -93.2244 265° West 369 425 34,000  Level Fort Worth Center
01:38PM 32.4211 -93.3478 264° West 369 425 34,000  Level Fort Worth Center
01:40PM 32.3997 -93.5925 271° West 369 425 34,000  Level Fort Worth Center
01:41PM 32.4011 -93.7106 272° West 369 425 34,000  Level Fort Worth Center
01:42PM 32.4047 -93.8333 270° West 369 425 34,000  Level Fort Worth Center
01:43PM 32.4039 -93.9539 272° West 369 425 34,000  Level Fort Worth Center
01:44PM 32.4072 -94.0742 271° West 369 425 34,000  Level Fort Worth Center
01:45PM 32.4083 -94.2022 272° West 369 425 34,000  Level Fort Worth Center
01:46PM 32.4114 -94.3250 270° West 369 425 34,000  Level Fort Worth Center
01:47PM 32.4122 -94.4481 270° West 374 430 34,000  Level Fort Worth Center
01:48PM 32.4131 -94.5711 272° West 374 430 34,000  Level Fort Worth Center
01:49PM 32.4158 -94.6942 264° West 374 430 34,000  Level Fort Worth Center
01:50PM 32.4039 -94.8225 239° Southwest 386 444 34,000  Level Fort Worth Center
01:51PM 32.3497 -94.9272 233° Southwest 367 422 34,000  Level Fort Worth Center
01:52PM 32.2869 -95.0272 244° Southwest 373 429 34,000  Level Fort Worth Center
01:53PM 32.2408 -95.1389 265° West 385 443 34,000  Level Fort Worth Center
01:54PM 32.2306 -95.2644 268° West 380 437 34,000  Level Fort Worth Center
01:55PM 32.2264 -95.3897 268° West 385 443 34,000  Level Fort Worth Center
01:56PM 32.2219 -95.5128 266° West 385 443 34,000  Level Fort Worth Center
01:57PM 32.2136 -95.6503 267° West 385 443 34,000  Level Fort Worth Center
01:58PM 32.2089 -95.7756 269° West 385 443 34,000 -60 Level Fort Worth Center
01:59PM 32.2064 -95.8986 291° West 385 443 33,900 -1,800 Descending Fort Worth Center
02:00PM 32.2453 -96.0183 294° West 386 444 30,400 -3,660 Descending Fort Worth Center
02:01PM 32.2858 -96.1267 289° West 412 474 26,600 -3,960 Descending FAA TRACON SMA TRACON (SMA)
02:02PM 32.3122 -96.2156 291° West 412 474 23,900 -4,020 Descending FAA TRACON SMA TRACON (SMA)
02:03PM 32.3400 -96.3022 290° West 409 471 21,300 -3,660 Descending FAA TRACON SMA TRACON (SMA)
02:03PM 32.3639 -96.3786 296° West 400 460 19,000 -3,600 Descending FAA TRACON SMA TRACON (SMA)
02:04PM 32.3967 -96.4581 314° West 392 451 16,500 -3,720 Descending FAA TRACON SMA TRACON (SMA)
02:05PM 32.4475 -96.5214 315° West 381 438 14,100 -3,240 Descending FAA TRACON SMA TRACON (SMA)
02:05PM 32.4928 -96.5747 315° West 374 430 12,200 -2,280 Descending FAA TRACON SMA TRACON (SMA)
02:06PM 32.5408 -96.6319 314° West 351 404 11,100 -900 Descending FAA TRACON SMA TRACON (SMA)
02:07PM 32.5861 -96.6883 314° West 339 390 11,000 -120 Descending FAA TRACON SMA TRACON (SMA)
02:07PM 32.6319 -96.7439 314° West 341 392 11,000  Level FAA TRACON SMA TRACON (SMA)
02:08PM 32.6733 -96.7944 315° West 346 398 11,000  Level FAA TRACON SMA TRACON (SMA)
02:09PM 32.7153 -96.8450 316° Northwest 303 349 11,000  Level FAA TRACON SMA TRACON (SMA)
02:09PM 32.7472 -96.8817 344° North 258 297 11,000 -120 Level FAA TRACON SMA TRACON (SMA)
02:10PM 32.7978 -96.8989 358° North 264 304 10,900 -840 Descending FAA TRACON SMA TRACON (SMA)
02:11PM 32.8392 -96.9006 North 259 298 9,900 -1,740 Descending FAA TRACON SMA TRACON (SMA)
02:11PM 32.8883 -96.9000 357° North 263 303 8,700 -1,800 Descending FAA TRACON SMA TRACON (SMA)
02:12PM 32.9372 -96.9033 360° North 253 291 7,500 -1,620 Descending FAA TRACON SMA TRACON (SMA)
02:13PM 32.9800 -96.9036 358° North 245 282 6,600 -1,320 Descending FAA TRACON SMA TRACON (SMA)
02:13PM 33.0275 -96.9053 350° North 245 282 5,800 -1,560 Descending FAA TRACON SMA TRACON (SMA)
02:14PM 33.0717 -96.9147 282° West 243 280 4,600 -1,380 Descending FAA TRACON SMA TRACON (SMA)
02:15PM 33.0797 -96.9617 282° West 232 267 4,000 -900 Descending FAA TRACON SMA TRACON (SMA)